Time;durP1;ratioP1;P1;durP2;ratioP2;P2;SDS_P1;SDS_P2;PMS_P1;PMS_P2;Temp;Humidity;BMP_temperature;BMP_pressure;BME280_temperature;BME280_humidity;BME280_pressure;Samples;Min_cycle;Max_cycle;Signal;HPM_P1;HPM_P2
2023/03/12 00:00:07;;;;;;;7.60;3.87;;;;;;;;;;5069223;28;20912;-70
2023/03/12 00:02:32;;;;;;;7.23;4.07;;;;;;;;;;5069633;28;20210;-70
2023/03/12 00:04:57;;;;;;;6.53;4.00;;;;;;;;;;5068895;28;20211;-70
2023/03/12 00:07:23;;;;;;;5.83;3.90;;;;;;;;;;5071844;28;20210;-70
2023/03/12 00:09:48;;;;;;;6.70;4.03;;;;;;;;;;5073456;28;20244;-70
2023/03/12 00:12:13;;;;;;;6.40;3.90;;;;;;;;;;5072098;28;20704;-70
2023/03/12 00:14:39;;;;;;;6.40;3.93;;;;;;;;;;5073387;28;20207;-70
2023/03/12 00:17:04;;;;;;;5.80;3.97;;;;;;;;;;5071953;28;20290;-69
2023/03/12 00:19:29;;;;;;;7.57;4.03;;;;;;;;;;5073058;28;20584;-70
2023/03/12 00:21:55;;;;;;;6.93;4.07;;;;;;;;;;5073280;28;20289;-70
2023/03/12 00:24:20;;;;;;;5.93;3.77;;;;;;;;;;5071947;28;20210;-70
2023/03/12 00:26:46;;;;;;;7.47;4.37;;;;;;;;;;5073113;28;20207;-70
2023/03/12 00:29:11;;;;;;;7.07;3.93;;;;;;;;;;5072506;28;20234;-70
2023/03/12 00:31:36;;;;;;;6.03;4.23;;;;;;;;;;5072401;28;20264;-70
2023/03/12 00:34:02;;;;;;;6.43;3.83;;;;;;;;;;5072351;28;20210;-69
2023/03/12 00:36:28;;;;;;;6.27;3.90;;;;;;;;;;5072667;28;20210;-70
2023/03/12 00:38:53;;;;;;;7.13;4.40;;;;;;;;;;5054401;28;20214;-70
2023/03/12 00:41:19;;;;;;;5.20;3.83;;;;;;;;;;5072451;28;20252;-70
2023/03/12 00:43:45;;;;;;;5.80;3.93;;;;;;;;;;5072652;28;20198;-70
2023/03/12 00:46:10;;;;;;;6.80;4.20;;;;;;;;;;5071622;28;20214;-70
2023/03/12 00:48:36;;;;;;;6.83;3.80;;;;;;;;;;5072514;28;20885;-70
2023/03/12 00:51:01;;;;;;;5.87;3.90;;;;;;;;;;5072245;28;20202;-69
2023/03/12 00:53:26;;;;;;;5.87;3.80;;;;;;;;;;5071924;28;20233;-70
2023/03/12 00:55:52;;;;;;;5.53;3.83;;;;;;;;;;5072658;28;20238;-70
2023/03/12 00:58:17;;;;;;;5.13;3.87;;;;;;;;;;5071909;28;20206;-70
2023/03/12 01:00:42;;;;;;;8.73;3.93;;;;;;;;;;5071864;28;20206;-70
2023/03/12 01:03:07;;;;;;;7.00;4.00;;;;;;;;;;5071569;28;20229;-69
2023/03/12 01:05:36;;;;;;;6.73;3.80;;;;;;;;;;5072638;28;20214;-70
2023/03/12 01:08:02;;;;;;;5.33;3.87;;;;;;;;;;5071150;28;20223;-70
2023/03/12 01:10:27;;;;;;;5.50;3.50;;;;;;;;;;5072104;28;20564;-70
2023/03/12 01:12:53;;;;;;;5.47;3.57;;;;;;;;;;5072231;28;20206;-70
2023/03/12 01:15:18;;;;;;;6.87;3.83;;;;;;;;;;5070986;28;20218;-70
2023/03/12 01:17:43;;;;;;;6.00;4.03;;;;;;;;;;5071337;28;20214;-70
2023/03/12 01:20:09;;;;;;;5.60;3.70;;;;;;;;;;5071559;28;20391;-70
2023/03/12 01:22:34;;;;;;;8.67;3.97;;;;;;;;;;5071494;28;20697;-70
2023/03/12 01:25:00;;;;;;;6.33;3.73;;;;;;;;;;5054235;28;20287;-71
2023/03/12 01:27:25;;;;;;;8.13;4.33;;;;;;;;;;5070853;28;20206;-71
2023/03/12 01:29:50;;;;;;;6.53;3.60;;;;;;;;;;5071839;28;20249;-71
2023/03/12 01:32:16;;;;;;;7.37;3.63;;;;;;;;;;5071428;28;20234;-70
2023/03/12 01:34:42;;;;;;;5.30;3.80;;;;;;;;;;5070815;28;20210;-70
2023/03/12 01:37:07;;;;;;;6.23;3.90;;;;;;;;;;5071384;28;20616;-69
2023/03/12 01:39:32;;;;;;;5.37;3.87;;;;;;;;;;5071777;28;20233;-70
2023/03/12 01:41:58;;;;;;;6.87;3.57;;;;;;;;;;5071115;28;20273;-70
2023/03/12 01:44:23;;;;;;;6.63;3.63;;;;;;;;;;5070984;28;20226;-70
2023/03/12 01:46:48;;;;;;;6.80;3.47;;;;;;;;;;5071602;28;20241;-70
2023/03/12 01:49:15;;;;;;;6.90;3.97;;;;;;;;;;5070066;28;20226;-69
2023/03/12 01:51:43;;;;;;;5.57;3.73;;;;;;;;;;5053835;28;20210;-70
2023/03/12 01:54:10;;;;;;;5.57;3.40;;;;;;;;;;5070988;28;20230;-69
2023/03/12 01:56:35;;;;;;;6.20;3.40;;;;;;;;;;5070896;28;20199;-70
2023/03/12 01:59:02;;;;;;;5.53;3.60;;;;;;;;;;5070854;28;20214;-69
2023/03/12 02:01:28;;;;;;;7.40;3.57;;;;;;;;;;5071128;28;20272;-69
2023/03/12 02:03:53;;;;;;;4.93;3.30;;;;;;;;;;5070290;28;20669;-70
2023/03/12 02:06:20;;;;;;;6.23;3.20;;;;;;;;;;5053042;28;20637;-70
2023/03/12 02:08:45;;;;;;;5.47;3.33;;;;;;;;;;5053177;28;20218;-70
2023/03/12 02:11:10;;;;;;;6.77;3.43;;;;;;;;;;5069979;28;20291;-70
2023/03/12 02:13:35;;;;;;;5.40;3.50;;;;;;;;;;5071094;28;20459;-70
2023/03/12 02:16:01;;;;;;;6.70;3.77;;;;;;;;;;5052509;28;20210;-67
2023/03/12 02:18:26;;;;;;;4.80;3.07;;;;;;;;;;5048799;28;20253;-70
2023/03/12 02:20:55;;;;;;;6.17;3.47;;;;;;;;;;5050981;28;20600;-70
2023/03/12 02:23:20;;;;;;;5.10;3.20;;;;;;;;;;5049347;28;20349;-70
2023/03/12 02:25:46;;;;;;;5.90;3.43;;;;;;;;;;5050265;28;20305;-70
2023/03/12 02:28:12;;;;;;;7.23;3.57;;;;;;;;;;5050110;28;20227;-70
2023/03/12 02:30:38;;;;;;;5.20;3.30;;;;;;;;;;5048301;28;20211;-70
2023/03/12 02:33:05;;;;;;;4.83;3.03;;;;;;;;;;5049204;28;20217;-70
2023/03/12 02:35:31;;;;;;;7.20;3.40;;;;;;;;;;5049319;28;20705;-70
2023/03/12 02:37:56;;;;;;;5.73;3.37;;;;;;;;;;5048721;28;20219;-72
2023/03/12 02:40:21;;;;;;;5.00;3.13;;;;;;;;;;5050235;28;20225;-67
2023/03/12 02:42:47;;;;;;;5.23;2.80;;;;;;;;;;5037662;28;20246;-68
2023/03/12 02:45:12;;;;;;;5.17;3.27;;;;;;;;;;5034431;28;20683;-68
2023/03/12 02:47:37;;;;;;;6.13;3.47;;;;;;;;;;5030403;28;20751;-68
2023/03/12 02:50:03;;;;;;;4.73;2.93;;;;;;;;;;5020763;28;20223;-67
2023/03/12 02:52:34;;;;;;;10.13;3.03;;;;;;;;;;5035041;28;20214;-68
2023/03/12 02:54:59;;;;;;;5.23;3.03;;;;;;;;;;5037763;28;20984;-68
2023/03/12 02:57:24;;;;;;;4.13;2.80;;;;;;;;;;5033078;28;20609;-68
2023/03/12 02:59:50;;;;;;;7.30;2.80;;;;;;;;;;5026905;28;20215;-68
2023/03/12 03:02:15;;;;;;;4.33;3.00;;;;;;;;;;5015542;28;20207;-68
2023/03/12 03:04:40;;;;;;;5.80;2.80;;;;;;;;;;5021084;28;20731;-68
2023/03/12 03:07:06;;;;;;;7.00;2.90;;;;;;;;;;5019372;28;20866;-67
2023/03/12 03:09:31;;;;;;;5.40;3.00;;;;;;;;;;5020916;28;20243;-68
2023/03/12 03:11:56;;;;;;;5.23;2.90;;;;;;;;;;5020864;28;20222;-68
2023/03/12 03:14:22;;;;;;;5.43;2.77;;;;;;;;;;5019872;28;20199;-68
2023/03/12 03:16:47;;;;;;;4.77;2.70;;;;;;;;;;5037279;28;20225;-68
2023/03/12 03:19:12;;;;;;;5.17;2.50;;;;;;;;;;5033313;28;20605;-68
2023/03/12 03:21:38;;;;;;;4.67;2.83;;;;;;;;;;5032450;28;20385;-68
2023/03/12 03:24:03;;;;;;;4.80;2.70;;;;;;;;;;5032854;28;20214;-68
2023/03/12 03:26:28;;;;;;;5.83;3.13;;;;;;;;;;5040469;28;20214;-68
2023/03/12 03:28:54;;;;;;;5.73;2.60;;;;;;;;;;5039512;28;20223;-68
2023/03/12 03:31:19;;;;;;;5.03;2.40;;;;;;;;;;5039864;28;20267;-68
2023/03/12 03:33:44;;;;;;;5.67;2.50;;;;;;;;;;5040256;28;20264;-68
2023/03/12 03:36:10;;;;;;;5.93;2.80;;;;;;;;;;5039684;28;20340;-68
2023/03/12 03:38:35;;;;;;;7.10;3.03;;;;;;;;;;5041304;28;20242;-68
2023/03/12 03:41:00;;;;;;;5.23;2.50;;;;;;;;;;5056355;28;20210;-63
2023/03/12 03:43:26;;;;;;;4.43;2.27;;;;;;;;;;5056196;28;20609;-68
2023/03/12 03:45:56;;;;;;;4.47;2.20;;;;;;;;;;5056188;28;20213;-68
2023/03/12 03:48:21;;;;;;;6.40;2.30;;;;;;;;;;5060184;28;21125;-68
2023/03/12 03:50:46;;;;;;;6.17;2.60;;;;;;;;;;5060246;28;20219;-68
2023/03/12 03:53:12;;;;;;;5.10;2.17;;;;;;;;;;5043564;28;20246;-68
2023/03/12 03:55:37;;;;;;;5.60;2.40;;;;;;;;;;5043561;28;20211;-68
2023/03/12 03:58:03;;;;;;;3.93;2.40;;;;;;;;;;5043816;28;20682;-67
2023/03/12 04:00:28;;;;;;;5.03;2.40;;;;;;;;;;5044134;28;20310;-68
2023/03/12 04:02:54;;;;;;;5.07;2.23;;;;;;;;;;5040219;28;20710;-68
2023/03/12 04:05:19;;;;;;;5.27;2.23;;;;;;;;;;5055558;28;20279;-68
2023/03/12 04:07:45;;;;;;;4.67;2.17;;;;;;;;;;5038221;28;20218;-68
2023/03/12 04:10:10;;;;;;;3.47;2.07;;;;;;;;;;5057570;28;20247;-68
2023/03/12 04:12:35;;;;;;;4.03;2.30;;;;;;;;;;5063317;28;20248;-68
2023/03/12 04:15:01;;;;;;;5.13;2.30;;;;;;;;;;5062982;28;20214;-68
2023/03/12 04:17:26;;;;;;;4.17;2.10;;;;;;;;;;5061417;28;20222;-68
2023/03/12 04:19:52;;;;;;;4.33;2.47;;;;;;;;;;5043838;28;20261;-68
2023/03/12 04:22:17;;;;;;;5.53;1.93;;;;;;;;;;5042843;28;20215;-68
2023/03/12 04:24:42;;;;;;;6.20;2.30;;;;;;;;;;5042718;28;20288;-68
2023/03/12 04:27:08;;;;;;;3.37;1.90;;;;;;;;;;5043046;28;20238;-68
2023/03/12 04:29:33;;;;;;;5.13;2.30;;;;;;;;;;5034249;28;20313;-68
2023/03/12 04:31:58;;;;;;;4.40;2.10;;;;;;;;;;5035711;28;20219;-68
2023/03/12 04:34:23;;;;;;;4.37;2.30;;;;;;;;;;5043088;28;20219;-68
2023/03/12 04:36:49;;;;;;;4.93;2.50;;;;;;;;;;5043505;28;20248;-69
2023/03/12 04:39:16;;;;;;;4.07;2.20;;;;;;;;;;5061243;28;20210;-68
2023/03/12 04:41:41;;;;;;;3.70;2.17;;;;;;;;;;5062809;28;20210;-68
2023/03/12 04:44:07;;;;;;;4.93;2.20;;;;;;;;;;5044205;28;20223;-68
2023/03/12 04:46:32;;;;;;;5.23;2.17;;;;;;;;;;5062432;28;20631;-68
2023/03/12 04:49:01;;;;;;;6.97;2.40;;;;;;;;;;5043671;28;20234;-68
2023/03/12 04:51:26;;;;;;;3.40;1.90;;;;;;;;;;5024615;28;20214;-68
2023/03/12 04:53:51;;;;;;;5.33;2.20;;;;;;;;;;5015357;28;20208;-68
2023/03/12 04:56:17;;;;;;;6.13;2.43;;;;;;;;;;5020534;28;20234;-68
2023/03/12 04:58:42;;;;;;;3.23;1.90;;;;;;;;;;5022428;28;21067;-68
2023/03/12 05:01:11;;;;;;;6.13;2.63;;;;;;;;;;5022449;28;20208;-67
2023/03/12 05:03:37;;;;;;;4.67;2.43;;;;;;;;;;5024128;28;20211;-68
2023/03/12 05:06:02;;;;;;;4.30;2.40;;;;;;;;;;5041506;28;20215;-67
2023/03/12 05:08:27;;;;;;;5.30;2.40;;;;;;;;;;5022405;28;20230;-68
2023/03/12 05:10:53;;;;;;;4.67;2.73;;;;;;;;;;5020007;28;20246;-69
2023/03/12 05:13:19;;;;;;;4.57;2.33;;;;;;;;;;5014513;28;20687;-69
2023/03/12 05:15:46;;;;;;;4.07;2.20;;;;;;;;;;5015323;28;20225;-68
2023/03/12 05:18:11;;;;;;;4.43;2.37;;;;;;;;;;5017935;28;20277;-69
2023/03/12 05:20:36;;;;;;;6.80;2.43;;;;;;;;;;5040940;28;20215;-68
2023/03/12 05:23:02;;;;;;;5.23;2.20;;;;;;;;;;5041777;28;20226;-68
2023/03/12 05:25:27;;;;;;;4.80;2.27;;;;;;;;;;5041982;28;20289;-69
2023/03/12 05:27:54;;;;;;;4.07;1.73;;;;;;;;;;5022920;28;20258;-69
2023/03/12 05:30:20;;;;;;;4.33;2.03;;;;;;;;;;5041416;28;20237;-68
2023/03/12 05:32:45;;;;;;;5.53;2.00;;;;;;;;;;5041070;28;20211;-69
2023/03/12 05:35:10;;;;;;;5.00;2.10;;;;;;;;;;5019580;28;20211;-68
2023/03/12 05:37:36;;;;;;;4.03;1.90;;;;;;;;;;5014909;28;20270;-69
2023/03/12 05:40:01;;;;;;;3.67;1.80;;;;;;;;;;5014862;28;20310;-67
2023/03/12 05:42:26;;;;;;;4.67;1.90;;;;;;;;;;5021390;28;20216;-69
2023/03/12 05:44:51;;;;;;;3.07;1.57;;;;;;;;;;5022254;28;20218;-69
2023/03/12 05:47:17;;;;;;;5.10;1.70;;;;;;;;;;5021570;28;20228;-69
2023/03/12 05:49:43;;;;;;;3.27;1.70;;;;;;;;;;5021600;28;20231;-69
2023/03/12 05:52:08;;;;;;;3.07;1.67;;;;;;;;;;5026379;28;20226;-68
2023/03/12 05:54:33;;;;;;;5.03;1.80;;;;;;;;;;5021249;28;20706;-69
2023/03/12 05:56:59;;;;;;;4.50;1.57;;;;;;;;;;5035933;28;20311;-69
2023/03/12 05:59:24;;;;;;;4.90;1.80;;;;;;;;;;5033366;28;20271;-69
2023/03/12 06:01:50;;;;;;;4.63;2.00;;;;;;;;;;5033687;28;20238;-69
2023/03/12 06:04:15;;;;;;;3.40;1.80;;;;;;;;;;5038639;28;20253;-69
2023/03/12 06:06:40;;;;;;;4.03;1.90;;;;;;;;;;5041453;28;20560;-69
2023/03/12 06:09:06;;;;;;;3.87;2.23;;;;;;;;;;5020104;28;20267;-68
2023/03/12 06:11:32;;;;;;;4.03;2.20;;;;;;;;;;5021832;28;20223;-69
2023/03/12 06:13:57;;;;;;;3.57;2.13;;;;;;;;;;5021805;28;20238;-69
2023/03/12 06:16:23;;;;;;;6.30;2.10;;;;;;;;;;5020589;28;20576;-69
2023/03/12 06:18:51;;;;;;;4.90;2.17;;;;;;;;;;5018461;28;20358;-70
2023/03/12 06:21:17;;;;;;;3.17;1.97;;;;;;;;;;5013939;28;20215;-69
2023/03/12 06:23:43;;;;;;;4.10;2.20;;;;;;;;;;5035703;28;20209;-70
2023/03/12 06:26:08;;;;;;;5.03;2.40;;;;;;;;;;5066489;28;20210;-68
2023/03/12 06:28:34;;;;;;;5.60;2.33;;;;;;;;;;5090843;28;20229;-67
2023/03/12 06:30:59;;;;;;;3.90;2.07;;;;;;;;;;5071865;28;20297;-65
2023/03/12 06:33:24;;;;;;;4.67;2.20;;;;;;;;;;5076489;28;20424;-67
2023/03/12 06:35:52;;;;;;;3.67;2.00;;;;;;;;;;5063484;28;20226;-65
2023/03/12 06:38:17;;;;;;;5.90;2.47;;;;;;;;;;5058736;28;20817;-66
2023/03/12 06:40:43;;;;;;;4.97;2.33;;;;;;;;;;5064963;28;20207;-65
2023/03/12 06:43:11;;;;;;;3.90;2.00;;;;;;;;;;5066724;28;20307;-65
2023/03/12 06:45:36;;;;;;;7.13;2.60;;;;;;;;;;5066940;28;20558;-67
2023/03/12 06:48:01;;;;;;;4.87;2.60;;;;;;;;;;5066144;28;20232;-65
2023/03/12 06:50:27;;;;;;;5.17;2.30;;;;;;;;;;5067949;28;20218;-65
2023/03/12 06:52:52;;;;;;;5.30;2.60;;;;;;;;;;5066370;28;20589;-65
2023/03/12 06:55:17;;;;;;;4.70;2.17;;;;;;;;;;5065422;28;20206;-66
2023/03/12 06:57:43;;;;;;;6.03;2.53;;;;;;;;;;5057916;28;20207;-66
2023/03/12 07:00:08;;;;;;;6.20;2.60;;;;;;;;;;5057501;28;20279;-66
2023/03/12 07:02:34;;;;;;;5.13;2.30;;;;;;;;;;5060987;28;20632;-66
2023/03/12 07:04:59;;;;;;;6.23;2.57;;;;;;;;;;5065619;28;20218;-65
2023/03/12 07:07:24;;;;;;;5.23;2.60;;;;;;;;;;5069896;28;20213;-66
2023/03/12 07:09:49;;;;;;;5.93;2.40;;;;;;;;;;5083914;28;20221;-66
2023/03/12 07:12:15;;;;;;;6.17;2.30;;;;;;;;;;5082634;28;21389;-66
2023/03/12 07:14:40;;;;;;;4.57;2.20;;;;;;;;;;5066078;28;20225;-66
2023/03/12 07:17:05;;;;;;;5.33;2.47;;;;;;;;;;5083302;28;20241;-64
2023/03/12 07:19:31;;;;;;;7.27;2.60;;;;;;;;;;5060908;28;20215;-65
2023/03/12 07:21:56;;;;;;;5.20;2.47;;;;;;;;;;5057380;28;20206;-65
2023/03/12 07:24:21;;;;;;;6.27;2.57;;;;;;;;;;5057872;28;20213;-66
2023/03/12 07:26:47;;;;;;;4.80;2.23;;;;;;;;;;5061821;28;20214;-65
2023/03/12 07:29:12;;;;;;;5.27;2.37;;;;;;;;;;5064724;28;20265;-65
2023/03/12 07:31:37;;;;;;;5.90;3.20;;;;;;;;;;5064406;28;20628;-65
2023/03/12 07:34:04;;;;;;;6.00;2.90;;;;;;;;;;5063667;28;20249;-65
2023/03/12 07:36:30;;;;;;;5.93;3.20;;;;;;;;;;5064662;28;20210;-66
2023/03/12 07:38:55;;;;;;;6.10;2.93;;;;;;;;;;5049121;28;20225;-66
2023/03/12 07:41:21;;;;;;;5.37;2.60;;;;;;;;;;5076336;28;20202;-65
2023/03/12 07:43:46;;;;;;;5.53;3.00;;;;;;;;;;5056925;28;20306;-64
2023/03/12 07:46:11;;;;;;;5.30;2.83;;;;;;;;;;5039101;28;20210;-65
2023/03/12 07:48:37;;;;;;;5.87;2.50;;;;;;;;;;5059630;28;20225;-64
2023/03/12 07:51:03;;;;;;;4.97;2.80;;;;;;;;;;5063965;28;20214;-64
2023/03/12 07:53:28;;;;;;;5.73;2.60;;;;;;;;;;5064322;28;20322;-64
2023/03/12 07:55:53;;;;;;;4.83;2.70;;;;;;;;;;5063652;28;20210;-64
2023/03/12 07:58:18;;;;;;;3.93;2.47;;;;;;;;;;5063705;28;20657;-67
2023/03/12 08:00:44;;;;;;;5.53;2.50;;;;;;;;;;5064366;28;20207;-69
2023/03/12 08:03:09;;;;;;;5.33;2.43;;;;;;;;;;5062974;28;20217;-67
2023/03/12 08:05:35;;;;;;;5.97;2.57;;;;;;;;;;5062721;28;20305;-69
2023/03/12 08:08:00;;;;;;;4.57;2.23;;;;;;;;;;5057108;28;20228;-69
2023/03/12 08:10:25;;;;;;;6.07;2.77;;;;;;;;;;5057330;28;20565;-65
2023/03/12 08:12:51;;;;;;;5.30;2.60;;;;;;;;;;5082593;28;20661;-67
2023/03/12 08:15:16;;;;;;;4.00;2.60;;;;;;;;;;5082144;28;20293;-66
2023/03/12 08:17:41;;;;;;;6.70;2.87;;;;;;;;;;5080992;28;20596;-68
2023/03/12 08:20:08;;;;;;;6.00;2.70;;;;;;;;;;5063866;28;20276;-65
2023/03/12 08:22:34;;;;;;;6.30;2.67;;;;;;;;;;5070154;28;21157;-65
2023/03/12 08:24:59;;;;;;;7.20;3.20;;;;;;;;;;5063788;28;20313;-65
2023/03/12 08:27:25;;;;;;;12.97;6.47;;;;;;;;;;5059428;28;20206;-66
2023/03/12 08:29:50;;;;;;;8.23;4.57;;;;;;;;;;5041965;28;20218;-65
2023/03/12 08:32:15;;;;;;;6.23;3.10;;;;;;;;;;5060342;28;20209;-64
2023/03/12 08:34:41;;;;;;;9.10;5.37;;;;;;;;;;5064904;28;20214;-65
2023/03/12 08:37:06;;;;;;;7.87;3.90;;;;;;;;;;5066263;28;20218;-64
2023/03/12 08:39:31;;;;;;;5.20;2.73;;;;;;;;;;5067287;28;20225;-64
2023/03/12 08:41:57;;;;;;;6.17;3.90;;;;;;;;;;5075297;28;20214;-65
2023/03/12 08:44:22;;;;;;;5.27;3.10;;;;;;;;;;5085792;28;20234;-65
2023/03/12 08:46:48;;;;;;;5.23;3.23;;;;;;;;;;5086529;28;20300;-65
2023/03/12 08:49:13;;;;;;;6.00;2.70;;;;;;;;;;5062941;28;20222;-64
2023/03/12 08:51:38;;;;;;;6.07;3.07;;;;;;;;;;5059188;28;20594;-65
2023/03/12 08:54:04;;;;;;;6.03;3.20;;;;;;;;;;5059096;28;20214;-65
2023/03/12 08:56:29;;;;;;;6.90;3.00;;;;;;;;;;5062714;28;20565;-65
2023/03/12 08:58:55;;;;;;;5.00;2.63;;;;;;;;;;5067580;28;20249;-66
2023/03/12 09:01:20;;;;;;;6.07;3.53;;;;;;;;;;5067983;28;20296;-65
2023/03/12 09:03:48;;;;;;;4.83;2.93;;;;;;;;;;5068423;28;20230;-66
2023/03/12 09:06:15;;;;;;;4.50;3.17;;;;;;;;;;5085279;28;20621;-65
2023/03/12 09:08:41;;;;;;;4.40;2.80;;;;;;;;;;5086048;28;20592;-65
2023/03/12 09:11:07;;;;;;;4.83;3.10;;;;;;;;;;5086292;28;20708;-65
2023/03/12 09:13:33;;;;;;;6.07;3.37;;;;;;;;;;5077398;28;20723;-67
2023/03/12 09:15:59;;;;;;;6.10;3.80;;;;;;;;;;5078929;28;20209;-66
2023/03/12 09:18:24;;;;;;;5.87;3.53;;;;;;;;;;5071258;28;20986;-67
2023/03/12 09:20:49;;;;;;;6.25;3.42;;;;;;;;;;5065843;28;20265;-66
2023/03/12 09:23:15;;;;;;;6.60;3.67;;;;;;;;;;5066096;28;20245;-66
2023/03/12 09:25:43;;;;;;;5.80;3.60;;;;;;;;;;5065477;28;20215;-64
2023/03/12 09:28:09;;;;;;;5.90;3.60;;;;;;;;;;5085800;28;20241;-65
2023/03/12 09:30:34;;;;;;;5.73;3.67;;;;;;;;;;5085889;28;20202;-66
2023/03/12 09:32:59;;;;;;;6.50;3.97;;;;;;;;;;5084957;28;20217;-66
2023/03/12 09:35:25;;;;;;;4.83;3.20;;;;;;;;;;5076100;28;20611;-68
2023/03/12 09:37:50;;;;;;;6.10;3.27;;;;;;;;;;5058231;28;20252;-69
2023/03/12 09:40:16;;;;;;;4.50;3.40;;;;;;;;;;5077301;28;20210;-66
2023/03/12 09:42:44;;;;;;;5.27;3.43;;;;;;;;;;5068734;28;20202;-70
2023/03/12 09:45:14;;;;;;;4.47;3.73;;;;;;;;;;5066484;28;20209;-69
2023/03/12 09:47:42;;;;;;;4.90;3.50;;;;;;;;;;5063811;28;20270;-70
2023/03/12 09:50:27;;;;;;;4.53;3.47;;;;;;;;;;5066868;28;20216;-70
2023/03/12 09:52:58;;;;;;;5.57;3.63;;;;;;;;;;5067610;28;20558;-69
2023/03/12 09:55:24;;;;;;;6.03;3.70;;;;;;;;;;5065960;28;20240;-67
2023/03/12 09:57:50;;;;;;;5.53;3.77;;;;;;;;;;5080375;28;20669;-69
2023/03/12 10:00:17;;;;;;;5.93;4.07;;;;;;;;;;5077338;28;20330;-69
2023/03/12 10:02:49;;;;;;;5.23;4.13;;;;;;;;;;5058392;28;20225;-69
2023/03/12 10:05:20;;;;;;;6.90;4.37;;;;;;;;;;5062660;28;20222;-68
2023/03/12 10:07:47;;;;;;;6.40;4.27;;;;;;;;;;5065013;28;20210;-70
2023/03/12 10:10:29;;;;;;;5.83;4.60;;;;;;;;;;5065995;28;20214;-69
2023/03/12 10:13:02;;;;;;;6.20;4.10;;;;;;;;;;5085292;28;21025;-70
2023/03/12 10:15:27;;;;;;;6.03;4.60;;;;;;;;;;5066178;28;20221;-70
2023/03/12 10:17:58;;;;;;;6.30;5.30;;;;;;;;;;5080817;28;20222;-69
2023/03/12 10:20:24;;;;;;;7.30;5.25;;;;;;;;;;5061516;28;20216;-69
2023/03/12 10:22:53;;;;;;;6.47;5.20;;;;;;;;;;5076945;28;20913;-69
2023/03/12 10:25:19;;;;;;;8.23;5.70;;;;;;;;;;5077719;28;20777;-69
2023/03/12 10:27:44;;;;;;;7.90;5.70;;;;;;;;;;5064898;28;20213;-68
2023/03/12 10:30:13;;;;;;;7.40;5.80;;;;;;;;;;5064046;28;20218;-68
2023/03/12 10:32:39;;;;;;;7.57;6.40;;;;;;;;;;5066405;28;20672;-68
2023/03/12 10:35:13;;;;;;;7.53;6.10;;;;;;;;;;5065236;28;21165;-69
2023/03/12 10:37:40;;;;;;;8.03;6.67;;;;;;;;;;5065158;28;20198;-69
2023/03/12 10:40:05;;;;;;;8.53;7.07;;;;;;;;;;5064269;28;20203;-69
2023/03/12 10:42:31;;;;;;;8.57;7.10;;;;;;;;;;5074224;28;20274;-70
2023/03/12 10:44:58;;;;;;;9.97;7.43;;;;;;;;;;5076524;28;20245;-70
2023/03/12 10:47:27;;;;;;;8.47;7.27;;;;;;;;;;5057996;28;20301;-70
2023/03/12 10:49:52;;;;;;;8.57;7.13;;;;;;;;;;5056428;28;20337;-69
2023/03/12 10:52:19;;;;;;;9.07;7.97;;;;;;;;;;5065433;28;20305;-69
2023/03/12 10:54:45;;;;;;;9.53;7.17;;;;;;;;;;5064766;28;20208;-70
2023/03/12 10:57:11;;;;;;;11.17;8.63;;;;;;;;;;5064608;28;20219;-69
2023/03/12 10:59:37;;;;;;;9.93;8.33;;;;;;;;;;5065733;28;20221;-69
2023/03/12 11:02:19;;;;;;;9.70;7.83;;;;;;;;;;5057422;28;20955;-69
2023/03/12 11:04:50;;;;;;;10.90;9.47;;;;;;;;;;5081806;28;20621;-69
2023/03/12 11:07:17;;;;;;;11.07;9.70;;;;;;;;;;5025605;28;20209;-68
2023/03/12 11:09:43;;;;;;;11.20;9.07;;;;;;;;;;5040771;28;20221;-69
2023/03/12 11:12:23;;;;;;;10.97;9.13;;;;;;;;;;5046345;28;20225;-68
2023/03/12 11:14:48;;;;;;;11.97;9.57;;;;;;;;;;5084108;28;20873;-69
2023/03/12 11:17:19;;;;;;;10.40;9.07;;;;;;;;;;5064925;28;20241;-69
2023/03/12 11:19:44;;;;;;;11.40;9.47;;;;;;;;;;5063438;28;20210;-69
2023/03/12 11:22:14;;;;;;;12.63;10.38;;;;;;;;;;5045839;28;20237;-68
2023/03/12 11:24:53;;;;;;;11.57;10.38;;;;;;;;;;5076577;28;20233;-68
2023/03/12 11:27:25;;;;;;;12.80;9.77;;;;;;;;;;5067304;28;20268;-69
2023/03/12 11:29:50;;;;;;;14.80;11.07;;;;;;;;;;5058388;28;20222;-69
2023/03/12 11:32:18;;;;;;;11.13;9.90;;;;;;;;;;5056583;28;20210;-68
2023/03/12 11:34:48;;;;;;;11.95;10.38;;;;;;;;;;5060774;28;20251;-68
2023/03/12 11:37:22;;;;;;;11.20;10.00;;;;;;;;;;5065204;28;20217;-68
2023/03/12 11:39:47;;;;;;;12.90;10.50;;;;;;;;;;5046874;28;20210;-69
2023/03/12 11:42:31;;;;;;;11.75;10.43;;;;;;;;;;5074247;28;20264;-68
2023/03/12 11:45:02;;;;;;;11.68;10.10;;;;;;;;;;5083972;28;20225;-67
2023/03/12 11:47:46;;;;;;;11.82;9.85;;;;;;;;;;5081493;28;20213;-63
2023/03/12 11:50:16;;;;;;;12.45;9.57;;;;;;;;;;5081045;28;20225;-65
2023/03/12 11:52:46;;;;;;;12.77;9.30;;;;;;;;;;5058207;28;20212;-66
2023/03/12 11:55:14;;;;;;;11.40;9.55;;;;;;;;;;5075742;28;20237;-66
2023/03/12 11:57:44;;;;;;;11.73;9.80;;;;;;;;;;5061733;28;20555;-67
2023/03/12 12:00:11;;;;;;;13.10;10.00;;;;;;;;;;5065455;28;20206;-66
2023/03/12 12:02:37;;;;;;;12.20;9.10;;;;;;;;;;5086129;28;20202;-66
2023/03/12 12:05:17;;;;;;;14.88;9.20;;;;;;;;;;5087317;28;20218;-66
2023/03/12 12:07:49;;;;;;;12.75;8.75;;;;;;;;;;5068987;28;20213;-67
2023/03/12 12:10:21;;;;;;;12.88;8.45;;;;;;;;;;5068937;28;20287;-64
2023/03/12 12:12:53;;;;;;;13.93;8.40;;;;;;;;;;5067652;28;20205;-66
2023/03/12 12:15:33;;;;;;;11.60;7.53;;;;;;;;;;5056057;28;20221;-67
2023/03/12 12:18:01;;;;;;;12.23;7.10;;;;;;;;;;5057133;28;20632;-66
2023/03/12 12:20:29;;;;;;;11.77;7.05;;;;;;;;;;5082811;28;20303;-66
2023/03/12 12:22:54;;;;;;;11.50;6.90;;;;;;;;;;5086993;28;20217;-67
2023/03/12 12:25:28;;;;;;;11.10;6.65;;;;;;;;;;5086367;28;20434;-67
2023/03/12 12:27:54;;;;;;;13.88;6.75;;;;;;;;;;5068669;28;20278;-67
2023/03/12 12:30:22;;;;;;;12.90;6.55;;;;;;;;;;5066469;28;20223;-66
2023/03/12 12:32:48;;;;;;;13.15;5.57;;;;;;;;;;5086612;28;20756;-66
2023/03/12 12:35:16;;;;;;;15.93;5.40;;;;;;;;;;5083459;28;20475;-66
2023/03/12 12:37:43;;;;;;;13.35;5.63;;;;;;;;;;5041449;28;20210;-66
2023/03/12 12:40:12;;;;;;;14.60;5.57;;;;;;;;;;5060549;28;20743;-66
2023/03/12 12:42:43;;;;;;;18.48;9.57;;;;;;;;;;5067368;28;20801;-66
2023/03/12 12:45:09;;;;;;;14.30;6.40;;;;;;;;;;5068077;28;20868;-66
2023/03/12 12:47:39;;;;;;;15.85;7.63;;;;;;;;;;5065979;28;20669;-66
2023/03/12 12:50:04;;;;;;;15.63;5.32;;;;;;;;;;5067411;28;20218;-65
2023/03/12 12:52:29;;;;;;;17.17;5.60;;;;;;;;;;5086789;28;20213;-67
2023/03/12 12:54:58;;;;;;;14.40;4.85;;;;;;;;;;5086776;28;20214;-66
2023/03/12 12:57:24;;;;;;;17.08;4.65;;;;;;;;;;5085682;28;20699;-66
2023/03/12 12:59:58;;;;;;;12.93;4.88;;;;;;;;;;5079331;28;20217;-66
2023/03/12 13:02:25;;;;;;;19.65;5.30;;;;;;;;;;5072289;28;20264;-66
2023/03/12 13:04:50;;;;;;;20.67;5.43;;;;;;;;;;5074087;28;20669;-66
2023/03/12 13:07:17;;;;;;;17.65;5.55;;;;;;;;;;5073956;28;20224;-66
2023/03/12 13:09:44;;;;;;;15.13;4.70;;;;;;;;;;5092557;28;20331;-66
2023/03/12 13:12:11;;;;;;;15.27;4.65;;;;;;;;;;5073306;28;20217;-66
2023/03/12 13:14:38;;;;;;;17.17;5.10;;;;;;;;;;5091650;28;20352;-66
2023/03/12 13:17:05;;;;;;;14.02;4.55;;;;;;;;;;5070013;28;20222;-66
2023/03/12 13:19:31;;;;;;;16.13;4.70;;;;;;;;;;5071459;28;20211;-66
2023/03/12 13:21:59;;;;;;;14.57;4.50;;;;;;;;;;5070945;28;20884;-66
2023/03/12 13:24:33;;;;;;;16.08;4.72;;;;;;;;;;5071805;28;20218;-66
2023/03/12 13:27:20;;;;;;;17.40;5.03;;;;;;;;;;5071402;28;20213;-66
2023/03/12 13:29:45;;;;;;;15.32;4.78;;;;;;;;;;5071525;28;20222;-66
2023/03/12 13:32:30;;;;;;;16.15;4.88;;;;;;;;;;5070564;28;20289;-66
2023/03/12 13:34:56;;;;;;;15.60;4.82;;;;;;;;;;5071773;28;20206;-66
2023/03/12 13:37:28;;;;;;;14.95;4.57;;;;;;;;;;5070178;28;20210;-66
2023/03/12 13:39:54;;;;;;;17.17;4.93;;;;;;;;;;5070026;28;20244;-66
2023/03/12 13:42:27;;;;;;;16.70;4.70;;;;;;;;;;5071058;28;20622;-66
2023/03/12 13:44:52;;;;;;;17.73;4.95;;;;;;;;;;5071813;28;20225;-66
2023/03/12 13:47:21;;;;;;;17.45;5.18;;;;;;;;;;5070681;28;20566;-66
2023/03/12 13:49:55;;;;;;;20.38;5.30;;;;;;;;;;5071505;28;20246;-64
2023/03/12 13:52:23;;;;;;;18.95;5.18;;;;;;;;;;5071264;28;20696;-64
2023/03/12 13:54:49;;;;;;;22.25;6.00;;;;;;;;;;5069736;28;20225;-64
2023/03/12 13:57:30;;;;;;;22.27;5.68;;;;;;;;;;5071111;28;20249;-66
2023/03/12 13:59:56;;;;;;;21.30;6.10;;;;;;;;;;5057927;28;20981;-64
2023/03/12 14:02:23;;;;;;;19.08;5.53;;;;;;;;;;5045556;28;20219;-64
2023/03/12 14:04:48;;;;;;;20.77;5.75;;;;;;;;;;5064287;28;20697;-64
2023/03/12 14:07:20;;;;;;;22.05;6.53;;;;;;;;;;5044907;28;20211;-64
2023/03/12 14:09:57;;;;;;;25.40;6.70;;;;;;;;;;5080271;28;20768;-68
2023/03/12 14:12:30;;;;;;;18.83;6.05;;;;;;;;;;5045413;28;20733;-68
2023/03/12 14:15:02;;;;;;;19.38;5.55;;;;;;;;;;5078921;28;20214;-68
2023/03/12 14:17:27;;;;;;;20.67;6.28;;;;;;;;;;5072377;28;20267;-68
2023/03/12 14:19:58;;;;;;;20.58;6.43;;;;;;;;;;5061971;28;20210;-68
2023/03/12 14:22:23;;;;;;;14.68;4.63;;;;;;;;;;5056947;28;20297;-68
2023/03/12 14:24:50;;;;;;;19.17;5.95;;;;;;;;;;5057417;28;20887;-70
2023/03/12 14:27:17;;;;;;;21.52;6.30;;;;;;;;;;5043361;28;20226;-68
2023/03/12 14:29:45;;;;;;;17.60;5.20;;;;;;;;;;5046766;28;20630;-68
2023/03/12 14:32:13;;;;;;;19.98;6.57;;;;;;;;;;5064367;28;20751;-64
2023/03/12 14:34:42;;;;;;;17.02;6.00;;;;;;;;;;5046980;28;20227;-64